sensor_id;sensor_type;location;lat;lon;timestamp;temperature;humidity
3492;DHT22;1760;52.480;13.422;2022-11-10T00:00:18;13.00;99.90
3492;DHT22;1760;52.480;13.422;2022-11-10T00:02:45;13.00;99.90
3492;DHT22;1760;52.480;13.422;2022-11-10T00:05:13;13.00;99.90
3492;DHT22;1760;52.480;13.422;2022-11-10T00:07:42;13.00;99.90
3492;DHT22;1760;52.480;13.422;2022-11-10T00:10:09;13.00;99.90
3492;DHT22;1760;52.480;13.422;2022-11-10T00:12:37;13.00;99.90
3492;DHT22;1760;52.480;13.422;2022-11-10T00:15:05;13.00;99.90
3492;DHT22;1760;52.480;13.422;2022-11-10T00:17:50;12.90;99.90
3492;DHT22;1760;52.480;13.422;2022-11-10T00:20:17;12.90;99.90
3492;DHT22;1760;52.480;13.422;2022-11-10T00:22:44;12.80;99.90
3492;DHT22;1760;52.480;13.422;2022-11-10T00:25:10;12.80;99.90
3492;DHT22;1760;52.480;13.422;2022-11-10T00:27:39;12.80;99.90
3492;DHT22;1760;52.480;13.422;2022-11-10T00:30:06;12.80;99.90
3492;DHT22;1760;52.480;13.422;2022-11-10T00:32:35;12.80;99.90
3492;DHT22;1760;52.480;13.422;2022-11-10T00:35:02;12.80;99.90
3492;DHT22;1760;52.480;13.422;2022-11-10T00:37:29;12.80;99.90
3492;DHT22;1760;52.480;13.422;2022-11-10T00:39:56;12.80;99.90
3492;DHT22;1760;52.480;13.422;2022-11-10T00:42:22;12.80;99.90
3492;DHT22;1760;52.480;13.422;2022-11-10T00:44:51;12.90;99.90
3492;DHT22;1760;52.480;13.422;2022-11-10T00:47:18;13.00;99.90
3492;DHT22;1760;52.480;13.422;2022-11-10T00:49:44;13.00;99.90
3492;DHT22;1760;52.480;13.422;2022-11-10T00:52:11;13.00;99.90
3492;DHT22;1760;52.480;13.422;2022-11-10T00:54:38;13.00;99.90
3492;DHT22;1760;52.480;13.422;2022-11-10T00:57:05;13.00;99.90
3492;DHT22;1760;52.480;13.422;2022-11-10T00:59:32;13.00;99.90
3492;DHT22;1760;52.480;13.422;2022-11-10T01:02:00;13.00;99.90
3492;DHT22;1760;52.480;13.422;2022-11-10T01:04:27;13.10;99.90
3492;DHT22;1760;52.480;13.422;2022-11-10T01:06:54;13.10;99.90
3492;DHT22;1760;52.480;13.422;2022-11-10T01:09:20;13.10;99.90
3492;DHT22;1760;52.480;13.422;2022-11-10T01:11:47;13.10;99.90
3492;DHT22;1760;52.480;13.422;2022-11-10T01:14:14;13.10;99.90
3492;DHT22;1760;52.480;13.422;2022-11-10T01:16:41;13.10;99.90
3492;DHT22;1760;52.480;13.422;2022-11-10T01:19:09;13.20;99.90
3492;DHT22;1760;52.480;13.422;2022-11-10T01:21:36;13.20;99.90
3492;DHT22;1760;52.480;13.422;2022-11-10T01:24:03;13.20;99.90
3492;DHT22;1760;52.480;13.422;2022-11-10T01:26:30;13.20;99.90
3492;DHT22;1760;52.480;13.422;2022-11-10T01:28:57;13.10;99.90
3492;DHT22;1760;52.480;13.422;2022-11-10T01:31:24;13.10;99.90
3492;DHT22;1760;52.480;13.422;2022-11-10T01:33:59;13.10;99.90
3492;DHT22;1760;52.480;13.422;2022-11-10T01:36:27;13.10;99.90
3492;DHT22;1760;52.480;13.422;2022-11-10T01:38:54;13.10;99.90
3492;DHT22;1760;52.480;13.422;2022-11-10T01:41:21;13.10;99.90
3492;DHT22;1760;52.480;13.422;2022-11-10T01:43:48;13.10;99.90
3492;DHT22;1760;52.480;13.422;2022-11-10T01:46:15;13.10;99.90
3492;DHT22;1760;52.480;13.422;2022-11-10T01:48:45;13.00;99.90
3492;DHT22;1760;52.480;13.422;2022-11-10T01:51:22;13.00;99.90
3492;DHT22;1760;52.480;13.422;2022-11-10T01:53:55;13.00;99.90
3492;DHT22;1760;52.480;13.422;2022-11-10T01:56:23;13.00;99.90
3492;DHT22;1760;52.480;13.422;2022-11-10T01:58:54;12.90;99.90
3492;DHT22;1760;52.480;13.422;2022-11-10T02:01:23;12.90;99.90
3492;DHT22;1760;52.480;13.422;2022-11-10T02:03:53;12.90;99.90
3492;DHT22;1760;52.480;13.422;2022-11-10T02:06:25;12.90;99.90
3492;DHT22;1760;52.480;13.422;2022-11-10T02:08:55;12.90;99.90
3492;DHT22;1760;52.480;13.422;2022-11-10T02:11:23;12.90;99.90
3492;DHT22;1760;52.480;13.422;2022-11-10T02:13:50;12.90;99.90
3492;DHT22;1760;52.480;13.422;2022-11-10T02:16:18;12.80;99.90
3492;DHT22;1760;52.480;13.422;2022-11-10T02:18:45;12.80;99.90
3492;DHT22;1760;52.480;13.422;2022-11-10T02:21:15;12.70;99.90
3492;DHT22;1760;52.480;13.422;2022-11-10T02:23:47;12.70;99.90
3492;DHT22;1760;52.480;13.422;2022-11-10T02:26:16;12.70;99.90
3492;DHT22;1760;52.480;13.422;2022-11-10T02:28:45;12.70;99.90
3492;DHT22;1760;52.480;13.422;2022-11-10T02:31:11;12.70;99.90
3492;DHT22;1760;52.480;13.422;2022-11-10T02:33:38;12.70;99.90
3492;DHT22;1760;52.480;13.422;2022-11-10T02:36:06;12.70;99.90
3492;DHT22;1760;52.480;13.422;2022-11-10T02:38:34;12.70;99.90
3492;DHT22;1760;52.480;13.422;2022-11-10T02:41:01;12.70;99.90
3492;DHT22;1760;52.480;13.422;2022-11-10T02:43:28;12.70;99.90
3492;DHT22;1760;52.480;13.422;2022-11-10T02:45:55;12.70;99.90
3492;DHT22;1760;52.480;13.422;2022-11-10T02:48:22;12.70;99.90
3492;DHT22;1760;52.480;13.422;2022-11-10T02:50:49;12.70;99.90
3492;DHT22;1760;52.480;13.422;2022-11-10T02:53:16;12.80;99.90
3492;DHT22;1760;52.480;13.422;2022-11-10T02:55:46;12.80;99.90
3492;DHT22;1760;52.480;13.422;2022-11-10T02:58:13;12.70;99.90
3492;DHT22;1760;52.480;13.422;2022-11-10T03:00:39;12.70;99.90
3492;DHT22;1760;52.480;13.422;2022-11-10T03:03:06;12.70;99.90
3492;DHT22;1760;52.480;13.422;2022-11-10T03:05:33;12.80;99.90
3492;DHT22;1760;52.480;13.422;2022-11-10T03:08:01;12.80;99.90
3492;DHT22;1760;52.480;13.422;2022-11-10T03:10:29;12.90;99.90
3492;DHT22;1760;52.480;13.422;2022-11-10T03:12:58;12.90;99.90
3492;DHT22;1760;52.480;13.422;2022-11-10T03:15:26;12.90;99.90
3492;DHT22;1760;52.480;13.422;2022-11-10T03:17:56;12.90;99.90
3492;DHT22;1760;52.480;13.422;2022-11-10T03:20:22;12.90;99.90
3492;DHT22;1760;52.480;13.422;2022-11-10T03:22:49;12.90;99.90
3492;DHT22;1760;52.480;13.422;2022-11-10T03:25:16;12.90;99.90
3492;DHT22;1760;52.480;13.422;2022-11-10T03:27:44;12.90;99.90
3492;DHT22;1760;52.480;13.422;2022-11-10T03:30:12;12.90;99.90
3492;DHT22;1760;52.480;13.422;2022-11-10T03:32:40;12.90;99.90
3492;DHT22;1760;52.480;13.422;2022-11-10T03:35:07;12.90;99.90
3492;DHT22;1760;52.480;13.422;2022-11-10T03:37:35;12.90;99.90
3492;DHT22;1760;52.480;13.422;2022-11-10T03:40:02;12.90;99.90
3492;DHT22;1760;52.480;13.422;2022-11-10T03:42:29;12.90;99.90
3492;DHT22;1760;52.480;13.422;2022-11-10T03:44:56;12.80;99.90
3492;DHT22;1760;52.480;13.422;2022-11-10T03:47:24;12.80;99.90
3492;DHT22;1760;52.480;13.422;2022-11-10T03:49:51;12.80;99.90
3492;DHT22;1760;52.480;13.422;2022-11-10T03:52:18;12.80;99.90
3492;DHT22;1760;52.480;13.422;2022-11-10T03:54:45;12.70;99.90
3492;DHT22;1760;52.480;13.422;2022-11-10T03:57:12;12.70;99.90
3492;DHT22;1760;52.480;13.422;2022-11-10T03:59:39;12.60;99.90
3492;DHT22;1760;52.480;13.422;2022-11-10T04:02:06;12.60;99.90
3492;DHT22;1760;52.480;13.422;2022-11-10T04:04:34;12.60;99.90
3492;DHT22;1760;52.480;13.422;2022-11-10T04:07:19;12.60;99.90
3492;DHT22;1760;52.480;13.422;2022-11-10T04:10:03;12.50;99.90
3492;DHT22;1760;52.480;13.422;2022-11-10T04:12:30;12.50;99.90
3492;DHT22;1760;52.480;13.422;2022-11-10T04:15:15;12.40;99.90
3492;DHT22;1760;52.480;13.422;2022-11-10T04:17:59;12.40;99.90
3492;DHT22;1760;52.480;13.422;2022-11-10T04:20:41;12.40;99.90
3492;DHT22;1760;52.480;13.422;2022-11-10T04:23:08;12.40;99.90
3492;DHT22;1760;52.480;13.422;2022-11-10T04:25:59;12.40;99.90
3492;DHT22;1760;52.480;13.422;2022-11-10T04:28:45;12.40;99.90
3492;DHT22;1760;52.480;13.422;2022-11-10T04:31:12;12.30;99.90
3492;DHT22;1760;52.480;13.422;2022-11-10T04:33:40;12.40;99.90
3492;DHT22;1760;52.480;13.422;2022-11-10T04:36:10;12.30;99.90
3492;DHT22;1760;52.480;13.422;2022-11-10T04:38:38;12.30;99.90
3492;DHT22;1760;52.480;13.422;2022-11-10T04:41:06;12.30;99.90
3492;DHT22;1760;52.480;13.422;2022-11-10T04:43:33;12.30;99.90
3492;DHT22;1760;52.480;13.422;2022-11-10T04:46:00;12.30;99.90
3492;DHT22;1760;52.480;13.422;2022-11-10T04:48:28;12.30;99.90
3492;DHT22;1760;52.480;13.422;2022-11-10T04:50:55;12.20;99.90
3492;DHT22;1760;52.480;13.422;2022-11-10T04:53:24;12.20;99.90
3492;DHT22;1760;52.480;13.422;2022-11-10T04:55:51;12.20;99.90
3492;DHT22;1760;52.480;13.422;2022-11-10T04:58:19;12.10;99.90
3492;DHT22;1760;52.480;13.422;2022-11-10T05:00:46;12.10;99.90
3492;DHT22;1760;52.480;13.422;2022-11-10T05:03:13;12.10;99.90
3492;DHT22;1760;52.480;13.422;2022-11-10T05:05:40;12.10;99.90
3492;DHT22;1760;52.480;13.422;2022-11-10T05:08:07;12.10;99.90
3492;DHT22;1760;52.480;13.422;2022-11-10T05:10:36;12.00;99.90
3492;DHT22;1760;52.480;13.422;2022-11-10T05:13:04;12.00;99.90
3492;DHT22;1760;52.480;13.422;2022-11-10T05:15:38;12.00;99.90
3492;DHT22;1760;52.480;13.422;2022-11-10T05:18:06;12.00;99.90
3492;DHT22;1760;52.480;13.422;2022-11-10T05:20:33;12.00;99.90
3492;DHT22;1760;52.480;13.422;2022-11-10T05:23:00;12.00;99.90
3492;DHT22;1760;52.480;13.422;2022-11-10T05:25:46;11.90;99.90
3492;DHT22;1760;52.480;13.422;2022-11-10T05:28:13;11.90;99.90
3492;DHT22;1760;52.480;13.422;2022-11-10T05:30:41;11.80;99.90
3492;DHT22;1760;52.480;13.422;2022-11-10T05:33:08;11.80;99.90
3492;DHT22;1760;52.480;13.422;2022-11-10T05:35:36;11.80;99.90
3492;DHT22;1760;52.480;13.422;2022-11-10T05:38:03;11.80;99.90
3492;DHT22;1760;52.480;13.422;2022-11-10T05:40:30;11.70;99.90
3492;DHT22;1760;52.480;13.422;2022-11-10T05:42:59;11.70;99.90
3492;DHT22;1760;52.480;13.422;2022-11-10T05:45:27;11.70;99.90
3492;DHT22;1760;52.480;13.422;2022-11-10T05:47:54;11.70;99.90
3492;DHT22;1760;52.480;13.422;2022-11-10T05:50:22;11.70;99.90
3492;DHT22;1760;52.480;13.422;2022-11-10T05:52:50;11.60;99.90
3492;DHT22;1760;52.480;13.422;2022-11-10T05:55:20;11.60;99.90
3492;DHT22;1760;52.480;13.422;2022-11-10T05:57:49;11.60;99.90
3492;DHT22;1760;52.480;13.422;2022-11-10T06:00:19;11.60;99.90
3492;DHT22;1760;52.480;13.422;2022-11-10T06:02:56;11.60;99.90
3492;DHT22;1760;52.480;13.422;2022-11-10T06:05:23;11.50;99.90
3492;DHT22;1760;52.480;13.422;2022-11-10T06:07:50;11.50;99.90
3492;DHT22;1760;52.480;13.422;2022-11-10T06:10:17;11.50;99.90
3492;DHT22;1760;52.480;13.422;2022-11-10T06:12:44;11.50;99.90
3492;DHT22;1760;52.480;13.422;2022-11-10T06:15:11;11.60;99.90
3492;DHT22;1760;52.480;13.422;2022-11-10T06:17:40;11.60;99.90
3492;DHT22;1760;52.480;13.422;2022-11-10T06:20:07;11.50;99.90
3492;DHT22;1760;52.480;13.422;2022-11-10T06:22:34;11.50;99.90
3492;DHT22;1760;52.480;13.422;2022-11-10T06:25:01;11.50;99.90
3492;DHT22;1760;52.480;13.422;2022-11-10T06:27:28;11.50;99.90
3492;DHT22;1760;52.480;13.422;2022-11-10T06:29:55;11.50;99.90
3492;DHT22;1760;52.480;13.422;2022-11-10T06:32:22;11.40;99.90
3492;DHT22;1760;52.480;13.422;2022-11-10T06:34:50;11.40;99.90
3492;DHT22;1760;52.480;13.422;2022-11-10T06:37:17;11.40;99.90
3492;DHT22;1760;52.480;13.422;2022-11-10T06:39:44;11.40;99.90
3492;DHT22;1760;52.480;13.422;2022-11-10T06:42:11;11.40;99.90
3492;DHT22;1760;52.480;13.422;2022-11-10T06:44:37;11.40;99.90
3492;DHT22;1760;52.480;13.422;2022-11-10T06:47:04;11.40;99.90
3492;DHT22;1760;52.480;13.422;2022-11-10T06:49:31;11.30;99.90
3492;DHT22;1760;52.480;13.422;2022-11-10T06:51:59;11.30;99.90
3492;DHT22;1760;52.480;13.422;2022-11-10T06:54:26;11.30;99.90
3492;DHT22;1760;52.480;13.422;2022-11-10T06:56:53;11.30;99.90
3492;DHT22;1760;52.480;13.422;2022-11-10T06:59:20;11.30;99.90
3492;DHT22;1760;52.480;13.422;2022-11-10T07:01:47;11.40;99.90
3492;DHT22;1760;52.480;13.422;2022-11-10T07:04:14;11.30;99.90
3492;DHT22;1760;52.480;13.422;2022-11-10T07:06:41;11.30;99.90
3492;DHT22;1760;52.480;13.422;2022-11-10T07:09:09;11.30;99.90
3492;DHT22;1760;52.480;13.422;2022-11-10T07:11:36;11.30;99.90
3492;DHT22;1760;52.480;13.422;2022-11-10T07:14:03;11.30;99.90
3492;DHT22;1760;52.480;13.422;2022-11-10T07:16:32;11.40;99.90
3492;DHT22;1760;52.480;13.422;2022-11-10T07:18:59;11.40;99.90
3492;DHT22;1760;52.480;13.422;2022-11-10T07:21:25;11.50;99.90
3492;DHT22;1760;52.480;13.422;2022-11-10T07:23:52;11.50;99.90
3492;DHT22;1760;52.480;13.422;2022-11-10T07:26:20;11.60;99.90
3492;DHT22;1760;52.480;13.422;2022-11-10T07:28:47;11.70;99.90
3492;DHT22;1760;52.480;13.422;2022-11-10T07:31:14;11.80;99.90
3492;DHT22;1760;52.480;13.422;2022-11-10T07:33:41;11.90;99.90
3492;DHT22;1760;52.480;13.422;2022-11-10T07:36:08;11.90;99.90
3492;DHT22;1760;52.480;13.422;2022-11-10T07:38:35;11.90;99.90
3492;DHT22;1760;52.480;13.422;2022-11-10T07:41:02;12.00;99.90
3492;DHT22;1760;52.480;13.422;2022-11-10T07:43:30;12.00;99.90
3492;DHT22;1760;52.480;13.422;2022-11-10T07:45:57;12.10;99.90
3492;DHT22;1760;52.480;13.422;2022-11-10T07:48:25;12.10;99.90
3492;DHT22;1760;52.480;13.422;2022-11-10T07:50:52;12.10;99.90
3492;DHT22;1760;52.480;13.422;2022-11-10T07:53:19;12.20;99.90
3492;DHT22;1760;52.480;13.422;2022-11-10T07:55:47;12.20;99.90
3492;DHT22;1760;52.480;13.422;2022-11-10T07:58:16;12.30;99.90
3492;DHT22;1760;52.480;13.422;2022-11-10T08:00:45;12.30;99.90
3492;DHT22;1760;52.480;13.422;2022-11-10T08:03:14;12.30;99.90
3492;DHT22;1760;52.480;13.422;2022-11-10T08:05:42;12.30;99.90
3492;DHT22;1760;52.480;13.422;2022-11-10T08:08:09;12.20;99.90
3492;DHT22;1760;52.480;13.422;2022-11-10T08:10:37;12.30;99.90
3492;DHT22;1760;52.480;13.422;2022-11-10T08:13:06;12.30;99.90
3492;DHT22;1760;52.480;13.422;2022-11-10T08:15:33;12.30;99.90
3492;DHT22;1760;52.480;13.422;2022-11-10T08:18:04;12.30;99.90
3492;DHT22;1760;52.480;13.422;2022-11-10T08:20:32;12.30;99.90
3492;DHT22;1760;52.480;13.422;2022-11-10T08:23:00;12.30;99.90
3492;DHT22;1760;52.480;13.422;2022-11-10T08:25:29;12.40;99.90
3492;DHT22;1760;52.480;13.422;2022-11-10T08:27:58;12.40;99.90
3492;DHT22;1760;52.480;13.422;2022-11-10T08:30:26;12.50;99.90
3492;DHT22;1760;52.480;13.422;2022-11-10T08:32:54;12.50;99.90
3492;DHT22;1760;52.480;13.422;2022-11-10T08:35:23;12.60;99.90
3492;DHT22;1760;52.480;13.422;2022-11-10T08:37:51;12.60;99.90
3492;DHT22;1760;52.480;13.422;2022-11-10T08:40:18;12.60;99.90
3492;DHT22;1760;52.480;13.422;2022-11-10T08:42:45;12.70;99.90
3492;DHT22;1760;52.480;13.422;2022-11-10T08:45:13;12.70;99.90
3492;DHT22;1760;52.480;13.422;2022-11-10T08:47:41;12.80;99.90
3492;DHT22;1760;52.480;13.422;2022-11-10T08:50:09;12.90;99.90
3492;DHT22;1760;52.480;13.422;2022-11-10T08:52:37;13.00;99.90
3492;DHT22;1760;52.480;13.422;2022-11-10T08:55:05;13.00;99.90
3492;DHT22;1760;52.480;13.422;2022-11-10T08:57:32;13.10;99.90
3492;DHT22;1760;52.480;13.422;2022-11-10T08:59:58;13.10;99.90
3492;DHT22;1760;52.480;13.422;2022-11-10T09:02:25;13.20;99.90
3492;DHT22;1760;52.480;13.422;2022-11-10T09:04:52;13.20;99.90
3492;DHT22;1760;52.480;13.422;2022-11-10T09:07:19;13.30;99.90
3492;DHT22;1760;52.480;13.422;2022-11-10T09:09:48;13.30;99.90
3492;DHT22;1760;52.480;13.422;2022-11-10T09:12:15;13.40;99.90
3492;DHT22;1760;52.480;13.422;2022-11-10T09:14:42;13.50;99.90
3492;DHT22;1760;52.480;13.422;2022-11-10T09:17:09;13.70;99.90
3492;DHT22;1760;52.480;13.422;2022-11-10T09:19:36;13.80;99.90
3492;DHT22;1760;52.480;13.422;2022-11-10T09:22:03;14.00;99.90
3492;DHT22;1760;52.480;13.422;2022-11-10T09:24:30;14.50;99.90
3492;DHT22;1760;52.480;13.422;2022-11-10T09:26:58;15.00;99.90
3492;DHT22;1760;52.480;13.422;2022-11-10T09:29:25;15.50;99.90
3492;DHT22;1760;52.480;13.422;2022-11-10T09:31:52;15.80;99.90
3492;DHT22;1760;52.480;13.422;2022-11-10T09:34:19;15.80;99.90
3492;DHT22;1760;52.480;13.422;2022-11-10T09:36:46;16.00;99.90
3492;DHT22;1760;52.480;13.422;2022-11-10T09:39:13;16.40;99.90
3492;DHT22;1760;52.480;13.422;2022-11-10T09:41:43;16.70;99.90
3492;DHT22;1760;52.480;13.422;2022-11-10T09:44:16;17.00;99.90
3492;DHT22;1760;52.480;13.422;2022-11-10T09:46:46;17.30;99.90
3492;DHT22;1760;52.480;13.422;2022-11-10T09:49:26;17.70;99.90
3492;DHT22;1760;52.480;13.422;2022-11-10T09:51:57;17.70;99.90
3492;DHT22;1760;52.480;13.422;2022-11-10T09:54:32;17.50;99.90
3492;DHT22;1760;52.480;13.422;2022-11-10T09:57:03;17.20;99.90
3492;DHT22;1760;52.480;13.422;2022-11-10T09:59:33;17.30;99.90
3492;DHT22;1760;52.480;13.422;2022-11-10T10:02:03;17.40;99.90
3492;DHT22;1760;52.480;13.422;2022-11-10T10:04:49;17.60;99.90
3492;DHT22;1760;52.480;13.422;2022-11-10T10:07:24;17.80;99.90
3492;DHT22;1760;52.480;13.422;2022-11-10T10:09:59;18.20;99.90
3492;DHT22;1760;52.480;13.422;2022-11-10T10:12:52;18.60;99.90
3492;DHT22;1760;52.480;13.422;2022-11-10T10:15:29;18.90;99.90
3492;DHT22;1760;52.480;13.422;2022-11-10T10:18:16;18.70;99.90
3492;DHT22;1760;52.480;13.422;2022-11-10T10:20:57;18.80;99.90
3492;DHT22;1760;52.480;13.422;2022-11-10T10:23:33;18.70;99.90
3492;DHT22;1760;52.480;13.422;2022-11-10T10:26:01;18.40;99.90
3492;DHT22;1760;52.480;13.422;2022-11-10T10:28:32;18.30;99.90
3492;DHT22;1760;52.480;13.422;2022-11-10T10:31:12;18.00;99.90
3492;DHT22;1760;52.480;13.422;2022-11-10T10:33:41;17.40;99.90
3492;DHT22;1760;52.480;13.422;2022-11-10T10:36:15;17.00;99.90
3492;DHT22;1760;52.480;13.422;2022-11-10T10:38:44;17.00;99.90
3492;DHT22;1760;52.480;13.422;2022-11-10T10:41:19;16.90;99.90
3492;DHT22;1760;52.480;13.422;2022-11-10T10:43:49;16.80;99.90
3492;DHT22;1760;52.480;13.422;2022-11-10T10:46:18;16.40;99.90
3492;DHT22;1760;52.480;13.422;2022-11-10T10:49:06;16.10;99.90
3492;DHT22;1760;52.480;13.422;2022-11-10T10:51:34;15.80;99.90
3492;DHT22;1760;52.480;13.422;2022-11-10T10:54:00;15.70;99.90
3492;DHT22;1760;52.480;13.422;2022-11-10T10:56:31;15.50;99.90
3492;DHT22;1760;52.480;13.422;2022-11-10T10:59:01;15.50;99.90
3492;DHT22;1760;52.480;13.422;2022-11-10T11:01:31;15.30;99.90
3492;DHT22;1760;52.480;13.422;2022-11-10T11:03:59;15.10;99.90
3492;DHT22;1760;52.480;13.422;2022-11-10T11:06:27;15.00;99.90
3492;DHT22;1760;52.480;13.422;2022-11-10T11:08:59;15.00;99.90
3492;DHT22;1760;52.480;13.422;2022-11-10T11:11:29;15.00;99.90
3492;DHT22;1760;52.480;13.422;2022-11-10T11:14:18;15.00;99.90
3492;DHT22;1760;52.480;13.422;2022-11-10T11:16:49;14.90;99.90
3492;DHT22;1760;52.480;13.422;2022-11-10T11:19:18;14.90;99.90
3492;DHT22;1760;52.480;13.422;2022-11-10T11:22:01;15.00;99.90
3492;DHT22;1760;52.480;13.422;2022-11-10T11:24:35;14.90;99.90
3492;DHT22;1760;52.480;13.422;2022-11-10T11:27:06;14.90;99.90
3492;DHT22;1760;52.480;13.422;2022-11-10T11:29:46;14.90;99.90
3492;DHT22;1760;52.480;13.422;2022-11-10T11:32:25;15.00;99.90
3492;DHT22;1760;52.480;13.422;2022-11-10T11:35:02;14.90;99.90
3492;DHT22;1760;52.480;13.422;2022-11-10T11:37:38;14.90;99.90
3492;DHT22;1760;52.480;13.422;2022-11-10T11:40:18;15.00;99.90
3492;DHT22;1760;52.480;13.422;2022-11-10T11:42:54;14.90;99.90
3492;DHT22;1760;52.480;13.422;2022-11-10T11:45:30;14.90;99.90
3492;DHT22;1760;52.480;13.422;2022-11-10T11:48:15;15.00;99.90
3492;DHT22;1760;52.480;13.422;2022-11-10T11:50:50;15.10;99.90
3492;DHT22;1760;52.480;13.422;2022-11-10T11:53:31;15.20;99.90
3492;DHT22;1760;52.480;13.422;2022-11-10T11:56:14;15.30;99.90
3492;DHT22;1760;52.480;13.422;2022-11-10T11:58:45;15.40;99.90
3492;DHT22;1760;52.480;13.422;2022-11-10T12:01:27;15.40;99.90
3492;DHT22;1760;52.480;13.422;2022-11-10T12:04:24;15.30;99.90
3492;DHT22;1760;52.480;13.422;2022-11-10T12:07:18;15.30;99.90
3492;DHT22;1760;52.480;13.422;2022-11-10T12:09:49;15.30;99.90
3492;DHT22;1760;52.480;13.422;2022-11-10T12:12:43;15.30;99.90
3492;DHT22;1760;52.480;13.422;2022-11-10T12:15:23;15.30;99.90
3492;DHT22;1760;52.480;13.422;2022-11-10T12:18:02;15.30;99.90
3492;DHT22;1760;52.480;13.422;2022-11-10T12:20:44;15.20;99.90
3492;DHT22;1760;52.480;13.422;2022-11-10T12:23:18;15.20;99.90
3492;DHT22;1760;52.480;13.422;2022-11-10T12:25:53;15.10;99.90
3492;DHT22;1760;52.480;13.422;2022-11-10T12:28:29;15.00;99.90
3492;DHT22;1760;52.480;13.422;2022-11-10T12:31:12;15.00;99.90
3492;DHT22;1760;52.480;13.422;2022-11-10T12:33:55;15.00;99.90
3492;DHT22;1760;52.480;13.422;2022-11-10T12:36:30;15.00;99.90
3492;DHT22;1760;52.480;13.422;2022-11-10T12:39:03;15.00;99.90
3492;DHT22;1760;52.480;13.422;2022-11-10T12:41:36;15.00;99.90
3492;DHT22;1760;52.480;13.422;2022-11-10T12:44:11;15.00;99.90
3492;DHT22;1760;52.480;13.422;2022-11-10T12:46:40;15.00;99.90
3492;DHT22;1760;52.480;13.422;2022-11-10T12:49:15;15.00;99.90
3492;DHT22;1760;52.480;13.422;2022-11-10T12:51:50;15.00;99.90
3492;DHT22;1760;52.480;13.422;2022-11-10T12:54:20;15.00;99.90
3492;DHT22;1760;52.480;13.422;2022-11-10T12:56:52;14.90;99.90
3492;DHT22;1760;52.480;13.422;2022-11-10T12:59:28;14.90;99.90
3492;DHT22;1760;52.480;13.422;2022-11-10T13:02:03;14.90;99.90
3492;DHT22;1760;52.480;13.422;2022-11-10T13:04:31;15.00;99.90
3492;DHT22;1760;52.480;13.422;2022-11-10T13:07:02;15.00;99.90
3492;DHT22;1760;52.480;13.422;2022-11-10T13:09:31;15.10;99.90
3492;DHT22;1760;52.480;13.422;2022-11-10T13:14:45;15.10;99.90
3492;DHT22;1760;52.480;13.422;2022-11-10T13:20:49;15.10;99.90
3492;DHT22;1760;52.480;13.422;2022-11-10T13:23:25;15.10;99.90
3492;DHT22;1760;52.480;13.422;2022-11-10T13:25:55;15.00;99.90
3492;DHT22;1760;52.480;13.422;2022-11-10T13:28:57;14.90;99.90
3492;DHT22;1760;52.480;13.422;2022-11-10T13:31:48;14.80;99.90
3492;DHT22;1760;52.480;13.422;2022-11-10T13:34:32;14.80;99.90
3492;DHT22;1760;52.480;13.422;2022-11-10T13:36:59;14.80;99.90
3492;DHT22;1760;52.480;13.422;2022-11-10T13:39:30;14.80;99.90
3492;DHT22;1760;52.480;13.422;2022-11-10T13:42:16;14.80;99.90
3492;DHT22;1760;52.480;13.422;2022-11-10T13:44:44;14.80;99.90
3492;DHT22;1760;52.480;13.422;2022-11-10T13:47:45;14.80;99.90
3492;DHT22;1760;52.480;13.422;2022-11-10T13:50:26;14.80;99.90
3492;DHT22;1760;52.480;13.422;2022-11-10T13:53:05;14.80;99.90
3492;DHT22;1760;52.480;13.422;2022-11-10T13:55:48;14.80;99.90
3492;DHT22;1760;52.480;13.422;2022-11-10T13:58:23;14.90;99.90
3492;DHT22;1760;52.480;13.422;2022-11-10T14:01:23;14.90;99.90
3492;DHT22;1760;52.480;13.422;2022-11-10T14:03:59;15.00;99.90
3492;DHT22;1760;52.480;13.422;2022-11-10T14:06:30;15.10;99.90
3492;DHT22;1760;52.480;13.422;2022-11-10T14:09:08;15.20;99.90
3492;DHT22;1760;52.480;13.422;2022-11-10T14:11:41;15.10;99.90
3492;DHT22;1760;52.480;13.422;2022-11-10T14:14:11;15.10;99.90
3492;DHT22;1760;52.480;13.422;2022-11-10T14:16:40;15.00;99.90
3492;DHT22;1760;52.480;13.422;2022-11-10T14:19:21;15.00;99.90
3492;DHT22;1760;52.480;13.422;2022-11-10T14:21:52;15.00;99.90
3492;DHT22;1760;52.480;13.422;2022-11-10T14:24:23;15.00;99.90
3492;DHT22;1760;52.480;13.422;2022-11-10T14:26:55;15.00;99.90
3492;DHT22;1760;52.480;13.422;2022-11-10T14:29:31;14.90;99.90
3492;DHT22;1760;52.480;13.422;2022-11-10T14:32:02;14.90;99.90
3492;DHT22;1760;52.480;13.422;2022-11-10T14:34:30;14.90;99.90
3492;DHT22;1760;52.480;13.422;2022-11-10T14:37:00;14.80;99.90
3492;DHT22;1760;52.480;13.422;2022-11-10T14:39:29;14.70;99.90
3492;DHT22;1760;52.480;13.422;2022-11-10T14:42:02;14.70;99.90
3492;DHT22;1760;52.480;13.422;2022-11-10T14:44:31;14.70;99.90
3492;DHT22;1760;52.480;13.422;2022-11-10T14:47:12;14.70;99.90
3492;DHT22;1760;52.480;13.422;2022-11-10T14:49:40;14.60;99.90
3492;DHT22;1760;52.480;13.422;2022-11-10T14:52:09;14.60;99.90
3492;DHT22;1760;52.480;13.422;2022-11-10T14:54:42;14.50;99.90
3492;DHT22;1760;52.480;13.422;2022-11-10T14:57:15;14.50;99.90
3492;DHT22;1760;52.480;13.422;2022-11-10T14:59:46;14.50;99.90
3492;DHT22;1760;52.480;13.422;2022-11-10T15:02:15;14.40;99.90
3492;DHT22;1760;52.480;13.422;2022-11-10T15:04:43;14.40;99.90
3492;DHT22;1760;52.480;13.422;2022-11-10T15:07:10;14.40;99.90
3492;DHT22;1760;52.480;13.422;2022-11-10T15:09:37;14.40;99.90
3492;DHT22;1760;52.480;13.422;2022-11-10T15:12:16;14.40;99.90
3492;DHT22;1760;52.480;13.422;2022-11-10T15:14:46;14.40;99.90
3492;DHT22;1760;52.480;13.422;2022-11-10T15:17:42;14.40;99.90
3492;DHT22;1760;52.480;13.422;2022-11-10T15:20:29;14.30;99.90
3492;DHT22;1760;52.480;13.422;2022-11-10T15:22:57;14.20;99.90
3492;DHT22;1760;52.480;13.422;2022-11-10T15:25:34;14.20;99.90
3492;DHT22;1760;52.480;13.422;2022-11-10T15:30:57;14.10;99.90
3492;DHT22;1760;52.480;13.422;2022-11-10T15:33:26;14.00;99.90
3492;DHT22;1760;52.480;13.422;2022-11-10T15:35:54;14.00;99.90
3492;DHT22;1760;52.480;13.422;2022-11-10T15:38:29;14.00;99.90
3492;DHT22;1760;52.480;13.422;2022-11-10T15:41:14;13.90;99.90
3492;DHT22;1760;52.480;13.422;2022-11-10T15:43:41;13.90;99.90
3492;DHT22;1760;52.480;13.422;2022-11-10T15:46:15;13.90;99.90
3492;DHT22;1760;52.480;13.422;2022-11-10T15:48:45;13.90;99.90
3492;DHT22;1760;52.480;13.422;2022-11-10T15:51:13;13.80;99.90
3492;DHT22;1760;52.480;13.422;2022-11-10T15:53:42;13.80;99.90
3492;DHT22;1760;52.480;13.422;2022-11-10T15:56:14;13.80;99.90
3492;DHT22;1760;52.480;13.422;2022-11-10T15:58:44;13.70;99.90
3492;DHT22;1760;52.480;13.422;2022-11-10T16:01:14;13.70;99.90
3492;DHT22;1760;52.480;13.422;2022-11-10T16:03:41;13.60;99.90
3492;DHT22;1760;52.480;13.422;2022-11-10T16:06:11;13.60;99.90
3492;DHT22;1760;52.480;13.422;2022-11-10T16:08:38;13.50;99.90
3492;DHT22;1760;52.480;13.422;2022-11-10T16:11:09;13.50;99.90
3492;DHT22;1760;52.480;13.422;2022-11-10T16:13:37;13.50;99.90
3492;DHT22;1760;52.480;13.422;2022-11-10T16:16:05;13.50;99.90